GB-0254 weather

Gutchpool Farm Airstrip
England, United Kingdom

Public forecast

Using degrees Celsius for public forecast. Weather courtesy of forecast.io.

METAR (pilot weather report)

Closest report is RNAS Yeovilton, 15.6 nm (28.8 km) W. Retrieved 2019/07/24 00:50 UTC (51 minutes ago):

EGDY 240050Z 31005KT 9999 FEW070CB SCT120 21/16 Q1011 BLU

TAF (pilot weather forecast)

Forecast is more than 12 hours old.

Closest forecast is RNAS Yeovilton, 15.6 nm (28.8 km) W. Retrieved 2019/05/01 18:06 UTC (3 months ago):

TAF TAF EGDY 010100Z 3018/0103 CNL